NEW MELONES RESERVOIR (NML)

Elevation: 1135' · STANISLAUS R basin · Operator: US Bureau of Reclamation

Provisional data, subject to change.
Query executed Tuesday at 23:23:33   clock

Select a sensor type for a plot of data.
Note: Reservoir Flows are daily averages.

Earlier

Date RES ELE    STORAGE    RES CHG    TOC STO    ABV TOC    OUTFLOW    INFLOW    EVAP    FNF    RIV REL    PPT INC    SPILL    DIS PWR   
 FEET   AF   AF   AF   AF   CFS   CFS   CFS   CFS   CFS   INCHES   CFS   CFS  
07/25/2016 876.54 593328 -1453 2420000 -1826672 1488 841 86 444 0 0.00 0 1488
07/26/2016 876.36 592393 -935 2420000 -1827607 1324 929 76 532 0 0.00 0 1324
07/27/2016 876.04 590733 -1660 2420000 -1829267 1605 855 87 455 0 0.00 0 1605
07/28/2016 875.74 589183 -1550 2420000 -1830817 1528 827 80 427 0 0.00 0 1528
07/29/2016 875.37 587273 -1910 2420000 -1832727 1750 864 77 476 0 0.00 0 1750
07/30/2016 874.99 585312 -1961 2420000 -1834688 1843 936 82 531 0 0.00 0 1843
07/31/2016 874.49 582745 -2567 2420000 -1837255 1978 762 78 359 0 0.00 0 1978
08/01/2016 874.16 581050 -1695 2420000 -1838950 1619 839 75 446 0 0.00 0 1619
08/02/2016 873.85 579463 -1587 2420000 -1840537 1553 818 65 397 0 0.00 0 1553
08/03/2016 873.43 577319 -2144 2420000 -1842681 1840 822 63 356 0 0.00 0 1840
08/04/2016 873.16 575940 -1379 2420000 -1844060 1381 757 71 287 0 0.00 0 1381
08/05/2016 872.92 574717 -1223 2420000 -1845283 1279 731 69 262 0 0.00 0 1279
08/06/2016 872.69 573549 -1168 2420000 -1846451 1273 753 69 282 0 0.00 0 1273
08/07/2016 872.29 571517 -2032 2420000 -1848483 1670 713 67 242 0 0.00 0 1670
08/08/2016 871.89 569489 -2028 2420000 -1850511 1778 823 67 354 0 0.00 0 1778
08/09/2016 871.35 566762 -2727 2420000 -1853238 2103 793 65 319 0 0.00 0 2103
08/10/2016 871.06 565297 -1465 2420000 -1854703 1487 810 62 -2213 0 0.00 0 1487
08/11/2016 870.75 563738 -1559 2420000 -1856262 1527 808 67 367 0 0.00 0 1527
08/12/2016 870.40 561980 -1758 2420000 -1858020 1637 814 63 346 0 0.00 0 1637
08/13/2016 870.16 560775 -1205 2420000 -1859225 1410 864 62 386 0 0.00 0 1410
08/14/2016 869.75 558722 -2053 2420000 -1861278 1799 832 68 345 0 0.00 0 1799
08/15/2016 869.55 557723 -999 2420000 -1862277 1258 830 76 368 0 0.00 0 1258
08/16/2016 869.26 556275 -1448 2420000 -1863725 1438 779 71 296 0 0.00 0 1438
08/17/2016 869.05 555226 -1049 2420000 -1864774 1248 793 74 324 0 0.00 0 1248
08/18/2016 868.84 554181 -1045 2420000 -1865819 1274 821 74 349 0 0.00 0 1274
08/19/2016 868.52 552591 -1590 2420000 -1867409 1495 769 76 296 0 0.00 0 1495
08/20/2016 868.31 551548 -1043 2420000 -1868452 1229 751 48 252 0 0.00 0 1229
08/21/2016 868.10 550505 -1043 2420000 -1869495 1155 677 48 197 0 0.00 0 1155
08/22/2016 867.93 549662 -843 2420000 -1870338 1172 811 64 331 0 0.00 0 1172
08/23/2016 -- -- -- -- -- -- -- -- -- -- -- -- --

Later | Latest

Warning! This data is preliminary and subject to revision.

Show NML Map | Plot NML Data | 1 Month NML Data | Real-Time NML Data | NML Info